Time;durP1;ratioP1;P1;durP2;ratioP2;P2;SDS_P1;SDS_P2;PMS_P1;PMS_P2;Temp;Humidity;BMP_temperature;BMP_pressure;BME280_temperature;BME280_humidity;BME280_pressure;Samples;Min_cycle;Max_cycle;Signal;HPM_P1;HPM_P2
2022/08/30 00:03:18;;;;;;;2.45;1.90;;;16.90;99.90;;;;;;5056654;28;20119;-37
2022/08/30 00:06:05;;;;;;;3.35;1.80;;;16.80;99.90;;;;;;5057346;28;20517;-32
2022/08/30 00:08:31;;;;;;;5.80;2.20;;;16.90;99.90;;;;;;5059583;28;20460;-40
2022/08/30 00:10:56;;;;;;;4.60;2.00;;;16.80;99.90;;;;;;5063678;28;20020;-49
2022/08/30 00:13:22;;;;;;;3.63;1.80;;;16.80;99.90;;;;;;5055709;28;20116;-41
2022/08/30 00:15:48;;;;;;;2.65;1.65;;;16.80;99.90;;;;;;5052783;28;21202;-41
2022/08/30 00:18:17;;;;;;;3.25;1.80;;;16.80;99.90;;;;;;5057636;28;20032;-37
2022/08/30 00:20:44;;;;;;;2.42;1.98;;;16.80;99.90;;;;;;5062404;28;20028;-34
2022/08/30 00:23:10;;;;;;;3.20;2.40;;;16.80;99.90;;;;;;5061054;28;20032;-37
2022/08/30 00:25:36;;;;;;;5.82;1.92;;;16.80;99.90;;;;;;5056834;28;20036;-32
2022/08/30 00:28:01;;;;;;;2.63;2.00;;;16.80;99.90;;;;;;5055550;28;20798;-40
2022/08/30 00:30:27;;;;;;;5.57;2.05;;;16.80;99.90;;;;;;5052780;28;20112;-35
2022/08/30 00:32:53;;;;;;;2.83;2.40;;;16.80;99.90;;;;;;5056465;28;20036;-50
2022/08/30 00:35:19;;;;;;;3.45;1.98;;;16.70;99.90;;;;;;5055124;28;20485;-40
2022/08/30 00:37:45;;;;;;;3.10;2.20;;;16.70;99.90;;;;;;5050889;28;20081;-39
2022/08/30 00:40:14;;;;;;;5.03;2.47;;;16.60;99.90;;;;;;5055563;28;20040;-35
2022/08/30 00:42:41;;;;;;;4.50;2.20;;;16.50;99.90;;;;;;5057400;28;20516;-33
2022/08/30 00:45:21;;;;;;;3.53;2.23;;;16.50;99.90;;;;;;5060587;28;20021;-32
2022/08/30 00:47:47;;;;;;;5.20;2.28;;;16.50;99.90;;;;;;5059259;28;20073;-34
2022/08/30 00:50:16;;;;;;;2.75;2.22;;;16.40;99.90;;;;;;5061072;28;20472;-52
2022/08/30 00:52:45;;;;;;;4.45;2.20;;;16.40;99.90;;;;;;5062079;28;20464;-34
2022/08/30 00:55:13;;;;;;;4.40;2.67;;;16.40;99.90;;;;;;5060839;28;20040;-34
2022/08/30 00:57:39;;;;;;;;;;;16.40;99.90;;;;;;5064356;28;20384;-32
2022/08/30 01:00:07;;;;;;;3.90;2.60;;;16.40;99.90;;;;;;5059226;28;20431;-43
2022/08/30 01:02:32;;;;;;;;;;;16.30;99.90;;;;;;5061530;28;20465;-40
2022/08/30 01:05:01;;;;;;;5.03;2.75;;;16.30;99.90;;;;;;5061136;28;19969;-34
2022/08/30 01:07:27;;;;;;;9.15;3.20;;;16.30;99.90;;;;;;5064036;28;20020;-31
2022/08/30 01:12:38;;;;;;;2.72;2.08;;;16.30;99.90;;;;;;5063158;28;20470;-35
2022/08/30 01:15:05;;;;;;;7.00;2.53;;;16.20;99.90;;;;;;5060393;28;20370;-39
2022/08/30 01:17:33;;;;;;;4.03;2.60;;;16.20;99.90;;;;;;5067653;28;20029;-34
2022/08/30 01:20:03;;;;;;;5.00;1.77;;;16.20;99.90;;;;;;5065455;28;20035;-37
2022/08/30 01:22:53;;;;;;;3.85;2.78;;;16.20;99.90;;;;;;5067316;28;20028;-73
2022/08/30 01:25:23;;;;;;;3.25;2.53;;;16.20;99.90;;;;;;5055574;28;20115;-39
2022/08/30 01:28:06;;;;;;;5.60;3.03;;;16.10;99.90;;;;;;5061351;28;20033;-35
2022/08/30 01:30:32;;;;;;;6.75;2.63;;;16.10;99.90;;;;;;5067675;28;20486;-38
2022/08/30 01:33:01;;;;;;;5.75;3.10;;;16.10;99.90;;;;;;5065246;28;20036;-37
2022/08/30 01:35:28;;;;;;;5.40;2.92;;;16.10;99.90;;;;;;5067906;28;20492;-38
2022/08/30 01:37:54;;;;;;;3.00;2.80;;;16.10;99.90;;;;;;5062898;28;20049;-35
2022/08/30 01:40:20;;;;;;;3.85;2.63;;;16.10;99.90;;;;;;5066339;28;20024;-75
2022/08/30 01:42:46;;;;;;;6.40;3.15;;;16.10;99.90;;;;;;5061394;28;20517;-35
2022/08/30 01:47:56;;;;;;;6.60;3.05;;;16.10;99.90;;;;;;5061140;28;20031;-38
2022/08/30 01:50:22;;;;;;;6.97;3.47;;;16.10;99.90;;;;;;5061619;28;20468;-41
2022/08/30 01:52:47;;;;;;;11.60;3.60;;;16.10;99.90;;;;;;5061870;28;20028;-37
2022/08/30 01:55:13;;;;;;;5.03;3.40;;;16.10;99.90;;;;;;5061330;28;20060;-39
2022/08/30 01:57:39;;;;;;;6.10;3.47;;;16.10;99.90;;;;;;5063713;28;20036;-40
2022/08/30 02:00:08;;;;;;;6.78;3.50;;;16.00;99.90;;;;;;5057878;28;20045;-36
2022/08/30 02:02:34;;;;;;;7.30;2.95;;;16.00;99.90;;;;;;5063450;28;20082;-38
2022/08/30 02:05:00;;;;;;;7.88;3.72;;;16.10;99.90;;;;;;5061657;28;20032;-39
2022/08/30 02:07:26;;;;;;;3.70;3.10;;;16.10;99.90;;;;;;5057978;28;20031;-41
2022/08/30 02:09:52;;;;;;;8.88;3.20;;;16.10;99.90;;;;;;5063089;28;20459;-40
2022/08/30 02:12:18;;;;;;;8.57;3.17;;;16.10;99.90;;;;;;5066056;28;20465;-36
2022/08/30 02:14:44;;;;;;;7.80;3.47;;;16.10;99.90;;;;;;5064979;28;20173;-42
2022/08/30 02:17:11;;;;;;;7.38;4.25;;;16.10;99.90;;;;;;5064071;28;20096;-38
2022/08/30 02:19:37;;;;;;;5.10;3.55;;;16.10;99.90;;;;;;5060337;28;20099;-38
2022/08/30 02:22:04;;;;;;;4.70;3.65;;;16.20;99.90;;;;;;5066259;28;20504;-38
2022/08/30 02:24:30;;;;;;;6.70;3.60;;;16.20;99.90;;;;;;5071647;28;20399;-38
2022/08/30 02:26:56;;;;;;;7.53;3.80;;;16.20;99.90;;;;;;5060276;28;20013;-38
2022/08/30 02:29:23;;;;;;;5.32;4.47;;;16.20;99.90;;;;;;5061386;28;20029;-40
2022/08/30 02:31:49;;;;;;;7.38;3.92;;;16.20;99.90;;;;;;5056012;28;20029;-40
2022/08/30 02:34:15;;;;;;;6.65;3.67;;;16.10;99.90;;;;;;5062824;28;20028;-40
2022/08/30 02:36:41;;;;;;;5.35;4.30;;;16.10;99.90;;;;;;5061207;28;20586;-40
2022/08/30 02:39:08;;;;;;;5.05;3.97;;;16.10;99.90;;;;;;5064025;28;20025;-43
2022/08/30 02:41:34;;;;;;;6.78;4.15;;;16.10;99.90;;;;;;5062628;28;20684;-73
2022/08/30 02:44:00;;;;;;;12.95;4.53;;;16.10;99.90;;;;;;5063417;28;20017;-38
2022/08/30 02:46:26;;;;;;;7.35;4.20;;;16.10;99.90;;;;;;5060983;28;20017;-44
2022/08/30 02:48:52;;;;;;;7.55;4.80;;;16.10;99.90;;;;;;5071370;28;20039;-32
2022/08/30 02:51:18;;;;;;;6.18;4.82;;;16.00;99.90;;;;;;5058328;28;20169;-37
2022/08/30 02:53:44;;;;;;;7.18;4.78;;;16.00;99.90;;;;;;5056080;28;20029;-36
2022/08/30 02:56:11;;;;;;;10.40;4.85;;;16.00;99.90;;;;;;5065893;28;20543;-36
2022/08/30 02:58:37;;;;;;;5.63;4.80;;;16.00;99.90;;;;;;5061927;28;20049;-38
2022/08/30 03:01:04;;;;;;;8.30;4.90;;;16.00;99.90;;;;;;5057267;28;20029;-38
2022/08/30 03:03:30;;;;;;;6.70;4.78;;;15.90;99.90;;;;;;5056009;28;20025;-38
2022/08/30 03:05:56;;;;;;;6.03;4.80;;;15.80;99.90;;;;;;5063617;28;20128;-36
2022/08/30 03:08:22;;;;;;;10.93;5.45;;;15.80;99.90;;;;;;5062147;28;20150;-38
2022/08/30 03:10:48;;;;;;;8.77;5.72;;;15.80;99.90;;;;;;5065452;28;20020;-36
2022/08/30 03:13:14;;;;;;;5.97;4.65;;;15.70;99.90;;;;;;5060852;28;20017;-37
2022/08/30 03:15:40;;;;;;;8.45;4.93;;;15.70;99.90;;;;;;5060566;28;20099;-37
2022/08/30 03:18:06;;;;;;;7.15;4.68;;;15.70;99.90;;;;;;5065887;28;20093;-37
2022/08/30 03:20:33;;;;;;;8.48;5.38;;;15.70;99.90;;;;;;5064218;28;20060;-39
2022/08/30 03:23:00;;;;;;;9.82;5.28;;;15.70;99.90;;;;;;5065236;28;20487;-38
2022/08/30 03:25:26;;;;;;;8.05;5.72;;;15.70;99.90;;;;;;5063664;28;20028;-32
2022/08/30 03:27:52;;;;;;;7.10;4.97;;;15.70;99.90;;;;;;5059187;28;20497;-41
2022/08/30 03:30:19;;;;;;;9.90;5.30;;;15.60;99.90;;;;;;5079926;28;20086;-33
2022/08/30 03:32:45;;;;;;;5.53;5.03;;;15.60;99.90;;;;;;5060890;28;20436;-34
2022/08/30 03:35:12;;;;;;;8.35;4.72;;;15.60;99.90;;;;;;5060679;28;20447;-39
2022/08/30 03:37:38;;;;;;;12.27;5.72;;;15.60;99.90;;;;;;5063814;28;20796;-36
2022/08/30 03:40:06;;;;;;;10.77;5.25;;;15.60;99.90;;;;;;5061653;28;20056;-38
2022/08/30 03:42:31;;;;;;;10.20;5.65;;;15.60;99.90;;;;;;5064775;28;20028;-36
2022/08/30 03:44:57;;;;;;;8.43;4.80;;;15.60;99.90;;;;;;5062079;28;21612;-33
2022/08/30 03:47:23;;;;;;;7.13;5.45;;;15.60;99.90;;;;;;5062531;28;20480;-33
2022/08/30 03:49:48;;;;;;;8.20;5.28;;;15.60;99.90;;;;;;5061817;28;20396;-41
2022/08/30 03:52:14;;;;;;;7.70;5.53;;;15.60;99.90;;;;;;5061208;28;20032;-39
2022/08/30 03:54:40;;;;;;;8.52;5.45;;;15.50;99.90;;;;;;5061582;28;20037;-42
2022/08/30 03:57:05;;;;;;;7.53;5.47;;;15.50;99.90;;;;;;5056111;28;20527;-36
2022/08/30 03:59:31;;;;;;;8.30;5.20;;;15.50;99.90;;;;;;5065039;28;20129;-38
2022/08/30 04:01:57;;;;;;;7.30;5.72;;;15.50;99.90;;;;;;5067225;28;20488;-39
2022/08/30 04:04:24;;;;;;;9.57;5.65;;;15.50;99.90;;;;;;5067949;28;20032;-49
2022/08/30 04:06:50;;;;;;;7.40;5.00;;;15.40;99.90;;;;;;5060217;28;20029;-38
2022/08/30 04:09:17;;;;;;;7.30;5.10;;;15.40;99.90;;;;;;5069055;28;20056;-37
2022/08/30 04:11:42;;;;;;;4.85;4.10;;;15.40;99.90;;;;;;5069275;28;20024;-38
2022/08/30 04:14:09;;;;;;;5.80;4.88;;;15.50;99.90;;;;;;5057262;28;20059;-35
2022/08/30 04:16:34;;;;;;;11.43;6.78;;;15.40;99.90;;;;;;5066102;28;20472;-35
2022/08/30 04:19:00;;;;;;;8.45;5.47;;;15.40;99.90;;;;;;5059082;28;20111;-31
2022/08/30 04:21:26;;;;;;;7.70;5.50;;;15.30;99.90;;;;;;5063751;28;20058;-31
2022/08/30 04:23:52;;;;;;;10.07;5.93;;;15.30;99.90;;;;;;5060481;28;20376;-37
2022/08/30 04:26:18;;;;;;;11.80;5.72;;;15.30;99.90;;;;;;5062511;28;20036;-45
2022/08/30 04:28:43;;;;;;;8.85;5.72;;;15.30;99.90;;;;;;5062077;28;20091;-31
2022/08/30 04:31:12;;;;;;;11.07;6.30;;;15.30;99.90;;;;;;5063026;28;20052;-38
2022/08/30 04:33:39;;;;;;;8.63;5.53;;;15.30;99.90;;;;;;5064485;28;20029;-34
2022/08/30 04:36:05;;;;;;;10.90;6.53;;;15.30;99.90;;;;;;5066235;28;20477;-31
2022/08/30 04:38:33;;;;;;;12.43;6.20;;;15.30;99.90;;;;;;5062693;28;20064;-31
2022/08/30 04:40:59;;;;;;;11.48;5.88;;;15.20;99.90;;;;;;5062129;28;20032;-40
2022/08/30 04:43:25;;;;;;;7.57;5.40;;;15.20;99.90;;;;;;5058349;28;20120;-38
2022/08/30 04:45:52;;;;;;;9.50;5.63;;;15.20;99.90;;;;;;5065370;28;20021;-41
2022/08/30 04:48:18;;;;;;;5.95;5.22;;;15.30;99.90;;;;;;5059140;28;20021;-34
2022/08/30 04:50:44;;;;;;;7.72;6.22;;;15.20;99.90;;;;;;5061300;28;20024;-43
2022/08/30 04:53:09;;;;;;;9.45;5.78;;;15.30;99.90;;;;;;5062331;28;20564;-41
2022/08/30 04:55:36;;;;;;;12.02;6.05;;;15.20;99.90;;;;;;5064668;28;20070;-39
2022/08/30 04:58:01;;;;;;;8.30;6.22;;;15.30;99.90;;;;;;5063995;28;20063;-39
2022/08/30 05:00:27;;;;;;;9.75;6.63;;;15.20;99.90;;;;;;5060997;28;20449;-38
2022/08/30 05:02:53;;;;;;;10.68;5.75;;;15.20;99.90;;;;;;5063041;28;20095;-38
2022/08/30 05:08:03;;;;;;;7.65;5.85;;;15.20;99.90;;;;;;5062688;28;20048;-40
2022/08/30 05:10:29;;;;;;;9.32;6.03;;;15.20;99.90;;;;;;5060086;28;20673;-41
2022/08/30 05:12:54;;;;;;;6.00;5.13;;;15.20;99.90;;;;;;5062738;28;20025;-37
2022/08/30 05:15:23;;;;;;;9.88;5.93;;;15.20;99.90;;;;;;5061704;28;20387;-38
2022/08/30 05:17:49;;;;;;;8.55;5.20;;;15.20;99.90;;;;;;5063290;28;20538;-38
2022/08/30 05:20:15;;;;;;;8.20;5.93;;;15.30;99.90;;;;;;5061428;28;20025;-41
2022/08/30 05:22:48;;;;;;;5.93;5.30;;;15.30;99.90;;;;;;5062293;28;20047;-39
2022/08/30 05:25:26;;;;;;;10.40;5.47;;;15.30;99.90;;;;;;5064998;28;20468;-37
2022/08/30 05:27:52;;;;;;;7.35;5.93;;;15.30;99.90;;;;;;5065198;28;20017;-40
2022/08/30 05:30:19;;;;;;;10.27;5.95;;;15.40;99.90;;;;;;5057745;28;20024;-38
2022/08/30 05:32:45;;;;;;;7.97;5.45;;;15.40;99.90;;;;;;5065504;28;20484;-43
2022/08/30 05:35:12;;;;;;;12.80;6.10;;;15.50;99.90;;;;;;5065475;28;20017;-63
2022/08/30 05:37:38;;;;;;;11.07;5.55;;;15.50;99.90;;;;;;5063760;28;20494;-42
2022/08/30 05:40:06;;;;;;;9.77;5.95;;;15.60;99.90;;;;;;5057178;28;20108;-37
2022/08/30 05:42:32;;;;;;;9.30;5.60;;;15.60;99.90;;;;;;5059108;28;20477;-39
2022/08/30 05:44:57;;;;;;;11.65;5.22;;;15.70;99.90;;;;;;5059553;28;20017;-38
2022/08/30 05:47:23;;;;;;;9.88;5.30;;;15.70;99.90;;;;;;5060567;28;20025;-41
2022/08/30 05:49:49;;;;;;;5.90;4.93;;;15.80;99.90;;;;;;5066300;28;20103;-36
2022/08/30 05:52:17;;;;;;;7.63;5.50;;;15.80;99.90;;;;;;5066692;28;20460;-41
2022/08/30 05:54:43;;;;;;;10.40;5.53;;;15.80;99.90;;;;;;5067475;28;20028;-41
2022/08/30 05:57:09;;;;;;;9.73;5.93;;;15.80;99.90;;;;;;5065840;28;21557;-36
2022/08/30 05:59:35;;;;;;;8.15;5.80;;;15.90;99.90;;;;;;5064856;28;20054;-35
2022/08/30 06:02:00;;;;;;;4.75;4.28;;;15.80;99.90;;;;;;5066628;28;20034;-38
2022/08/30 06:04:26;;;;;;;9.52;4.65;;;15.90;99.90;;;;;;5066189;28;20035;-39
2022/08/30 06:06:54;;;;;;;9.35;4.70;;;16.00;99.90;;;;;;5066305;28;20077;-41
2022/08/30 06:09:28;;;;;;;7.25;4.72;;;16.00;99.90;;;;;;5061728;28;20036;-38
2022/08/30 06:11:54;;;;;;;6.85;4.70;;;16.00;99.90;;;;;;5063431;28;21537;-34
2022/08/30 06:14:20;;;;;;;5.40;4.50;;;16.10;99.90;;;;;;5065540;28;20111;-37
2022/08/30 06:16:46;;;;;;;5.97;4.32;;;16.20;99.90;;;;;;5068436;28;20047;-39
2022/08/30 06:19:14;;;;;;;7.97;3.67;;;16.30;99.90;;;;;;5062705;28;20025;-36
2022/08/30 06:21:41;;;;;;;8.85;3.80;;;16.40;99.90;;;;;;5062249;28;20024;-32
2022/08/30 06:24:08;;;;;;;5.35;3.30;;;16.50;99.90;;;;;;5058866;28;20025;-36
2022/08/30 06:26:46;;;;;;;4.18;3.35;;;16.60;99.90;;;;;;5062019;28;20119;-43
2022/08/30 06:29:14;;;;;;;6.65;3.20;;;16.70;99.90;;;;;;5064605;28;20099;-47
2022/08/30 06:31:40;;;;;;;4.15;2.95;;;16.80;99.90;;;;;;5066309;28;20017;-32
2022/08/30 06:34:06;;;;;;;5.90;3.40;;;16.90;99.90;;;;;;5060642;28;20027;-35
2022/08/30 06:36:32;;;;;;;4.80;2.65;;;17.00;99.90;;;;;;5062130;28;20104;-32
2022/08/30 06:38:59;;;;;;;4.63;2.97;;;17.10;99.90;;;;;;5064184;28;20107;-39
2022/08/30 06:41:28;;;;;;;5.47;3.00;;;17.20;99.90;;;;;;5056115;28;20037;-33
2022/08/30 06:43:55;;;;;;;3.67;3.33;;;17.30;99.90;;;;;;5061524;28;20502;-33
2022/08/30 06:46:24;;;;;;;3.47;2.63;;;17.30;99.90;;;;;;5063538;28;20052;-38
2022/08/30 06:48:49;;;;;;;4.00;2.83;;;17.40;99.90;;;;;;5062593;28;20318;-32
2022/08/30 06:51:26;;;;;;;3.28;2.67;;;17.60;99.90;;;;;;5064591;28;20067;-35
2022/08/30 06:53:52;;;;;;;3.95;2.58;;;17.60;99.90;;;;;;5062614;28;20036;-34
2022/08/30 06:56:19;;;;;;;9.57;2.70;;;17.70;99.90;;;;;;5068900;28;20090;-34
2022/08/30 06:58:45;;;;;;;2.92;2.65;;;17.60;99.90;;;;;;5058827;28;20106;-40
2022/08/30 07:01:14;;;;;;;6.97;2.53;;;17.70;99.90;;;;;;5065650;28;20573;-34
2022/08/30 07:03:40;;;;;;;3.50;2.30;;;17.80;99.90;;;;;;5061517;28;20433;-39
2022/08/30 07:06:06;;;;;;;10.57;3.25;;;17.80;99.90;;;;;;5064342;28;20100;-34
2022/08/30 07:08:32;;;;;;;5.43;2.38;;;17.90;99.90;;;;;;5064246;28;20480;-32
2022/08/30 07:10:58;;;;;;;3.33;2.25;;;17.90;99.90;;;;;;5062705;28;20028;-38
2022/08/30 07:13:24;;;;;;;4.05;2.50;;;17.90;99.90;;;;;;5059218;28;20063;-34
2022/08/30 07:15:51;;;;;;;5.75;2.30;;;18.10;99.90;;;;;;5064461;28;20481;-32
2022/08/30 07:21:05;;;;;;;;;;;18.20;99.90;;;;;;5061315;28;20055;-39
2022/08/30 07:23:31;;;;;;;2.15;2.00;;;18.30;99.90;;;;;;5059697;28;19966;-45
2022/08/30 07:25:57;;;;;;;1.65;1.48;;;18.50;99.90;;;;;;5065249;28;20052;-39
2022/08/30 07:28:22;;;;;;;3.05;1.45;;;18.60;99.90;;;;;;5059252;28;20074;-36
2022/08/30 07:30:48;;;;;;;4.82;2.15;;;18.80;99.90;;;;;;5062901;28;20033;-34
2022/08/30 07:33:13;;;;;;;1.73;1.25;;;18.90;99.90;;;;;;5066324;28;20032;-39
2022/08/30 07:35:39;;;;;;;1.67;1.30;;;19.10;99.90;;;;;;5063064;28;20491;-36
2022/08/30 07:38:05;;;;;;;2.58;1.27;;;19.20;99.90;;;;;;5059685;28;20028;-41
2022/08/30 07:40:30;;;;;;;1.25;1.15;;;19.40;99.90;;;;;;5061702;28;20033;-33
2022/08/30 07:42:57;;;;;;;1.48;1.20;;;19.50;99.90;;;;;;5061311;28;20037;-40
2022/08/30 07:45:23;;;;;;;2.25;1.30;;;19.50;99.90;;;;;;5062966;28;20437;-39
2022/08/30 07:47:48;;;;;;;4.78;1.02;;;19.60;99.90;;;;;;5061269;28;20061;-30
2022/08/30 07:50:14;;;;;;;3.33;1.10;;;19.70;99.90;;;;;;5052412;28;20009;-33
2022/08/30 07:52:40;;;;;;;5.20;1.00;;;19.80;99.90;;;;;;5053341;28;20381;-35
2022/08/30 07:55:06;;;;;;;2.45;1.50;;;19.80;99.90;;;;;;5046570;28;20025;-33
2022/08/30 07:57:50;;;;;;;1.27;1.00;;;20.00;99.90;;;;;;5055766;28;20029;-29
2022/08/30 08:00:18;;;;;;;5.35;1.27;;;20.10;99.90;;;;;;5059181;28;20036;-31
2022/08/30 08:02:44;;;;;;;;;;;20.20;99.90;;;;;;5047025;28;20532;-30
2022/08/30 08:05:09;;;;;;;1.27;1.17;;;20.30;99.90;;;;;;5048433;28;20607;-35
2022/08/30 08:07:35;;;;;;;2.05;0.90;;;20.40;99.90;;;;;;5059097;28;20021;-29
2022/08/30 08:10:01;;;;;;;3.15;0.90;;;20.40;99.90;;;;;;5059063;28;20025;-50
2022/08/30 08:12:27;;;;;;;1.67;1.15;;;20.30;99.90;;;;;;5051927;28;20031;-39
2022/08/30 08:14:53;;;;;;;2.13;0.90;;;20.40;99.90;;;;;;5050570;28;21379;-37
2022/08/30 08:17:18;;;;;;;2.20;1.48;;;20.50;99.90;;;;;;5053862;28;21887;-37
2022/08/30 08:19:44;;;;;;;1.75;0.68;;;20.70;99.90;;;;;;5058947;28;20032;-38
2022/08/30 08:22:10;;;;;;;1.85;0.73;;;20.80;99.90;;;;;;5052164;28;20028;-38
2022/08/30 08:24:36;;;;;;;3.15;0.85;;;20.90;99.90;;;;;;5050406;28;20035;-35
2022/08/30 08:27:02;;;;;;;1.10;0.88;;;21.00;99.90;;;;;;5054485;28;20029;-38
2022/08/30 08:29:28;;;;;;;3.65;0.68;;;21.10;99.90;;;;;;5054158;28;20467;-38
2022/08/30 08:31:54;;;;;;;3.75;0.73;;;21.20;99.90;;;;;;5056898;28;20032;-37
2022/08/30 08:34:22;;;;;;;0.73;0.50;;;21.30;99.90;;;;;;5060578;28;20453;-38
2022/08/30 08:36:48;;;;;;;;;;;21.20;99.90;;;;;;5059540;28;20045;-40
2022/08/30 08:39:14;;;;;;;0.45;0.45;;;21.10;99.90;;;;;;5055520;28;19905;-38
2022/08/30 08:41:45;;;;;;;2.92;0.80;;;21.10;99.90;;;;;;5059552;28;20024;-37
2022/08/30 08:44:30;;;;;;;2.55;1.00;;;21.20;99.90;;;;;;5057944;28;20036;-37
2022/08/30 08:47:10;;;;;;;4.72;0.90;;;21.20;99.90;;;;;;5061171;28;20489;-33
2022/08/30 08:49:39;;;;;;;1.63;1.23;;;21.30;99.90;;;;;;5062127;28;20718;-34
2022/08/30 08:54:58;;;;;;;1.73;0.82;;;21.40;99.90;;;;;;5059996;28;20539;-37
2022/08/30 08:57:25;;;;;;;0.98;0.80;;;21.40;99.90;;;;;;5065260;28;20051;-38
2022/08/30 08:59:53;;;;;;;1.60;0.60;;;21.40;99.90;;;;;;5068823;28;20507;-41
2022/08/30 09:02:27;;;;;;;10.93;0.98;;;21.50;99.90;;;;;;5075055;28;20025;-39
2022/08/30 09:04:59;;;;;;;0.45;0.45;;;21.40;99.90;;;;;;5064761;28;20016;-39
2022/08/30 09:07:50;;;;;;;0.60;0.60;;;21.50;99.90;;;;;;5065846;28;20020;-38
2022/08/30 09:10:16;;;;;;;2.42;0.80;;;21.50;99.90;;;;;;5063690;28;20063;-38
2022/08/30 09:12:43;;;;;;;2.28;1.13;;;21.60;99.90;;;;;;5056668;28;20021;-37
2022/08/30 09:15:17;;;;;;;5.15;0.73;;;21.60;99.90;;;;;;5065573;28;20559;-38
2022/08/30 09:17:50;;;;;;;2.15;0.80;;;22.00;99.90;;;;;;5062545;28;20473;-36
2022/08/30 09:20:51;;;;;;;3.58;0.93;;;22.10;99.30;;;;;;5062427;28;20541;-36
2022/08/30 09:23:22;;;;;;;1.40;0.63;;;22.20;99.20;;;;;;5036596;28;20060;-33
2022/08/30 09:25:55;;;;;;;0.50;0.50;;;22.20;98.70;;;;;;5055608;28;20411;-38
2022/08/30 09:28:30;;;;;;;0.68;0.68;;;22.20;98.70;;;;;;5062875;28;20519;-38
2022/08/30 09:31:00;;;;;;;1.10;0.80;;;22.40;98.80;;;;;;5063846;28;20247;-37
2022/08/30 09:33:25;;;;;;;2.60;0.70;;;22.30;98.50;;;;;;5057508;28;20032;-37
2022/08/30 09:35:51;;;;;;;1.15;0.55;;;22.40;98.30;;;;;;5063602;28;20673;-38
2022/08/30 09:38:27;;;;;;;1.10;0.65;;;22.60;98.50;;;;;;5064540;28;20396;-41
2022/08/30 09:40:57;;;;;;;1.08;0.85;;;22.70;97.90;;;;;;5063204;28;20031;-42
2022/08/30 09:43:31;;;;;;;1.10;0.77;;;23.00;97.70;;;;;;5058701;28;20043;-35
2022/08/30 09:45:59;;;;;;;8.45;0.93;;;23.00;97.50;;;;;;5061289;28;20469;-36
2022/08/30 09:48:36;;;;;;;4.28;0.70;;;22.90;97.00;;;;;;5062160;28;20047;-38
2022/08/30 09:51:12;;;;;;;2.15;0.90;;;23.00;97.30;;;;;;5066590;28;20024;-39
2022/08/30 09:53:53;;;;;;;4.18;1.38;;;23.20;97.00;;;;;;5062830;28;20097;-47
2022/08/30 09:56:29;;;;;;;1.30;0.80;;;23.40;97.00;;;;;;5063061;28;20061;-33
2022/08/30 09:59:07;;;;;;;3.50;0.52;;;23.50;97.00;;;;;;5065487;28;20048;-31
2022/08/30 10:01:39;;;;;;;1.08;0.95;;;23.50;96.70;;;;;;5060937;28;20051;-35
2022/08/30 10:04:30;;;;;;;1.15;0.88;;;23.50;96.90;;;;;;5063440;28;20102;-38
2022/08/30 10:07:04;;;;;;;1.27;0.93;;;23.70;96.70;;;;;;5059692;28;20056;-31
2022/08/30 10:09:35;;;;;;;1.95;0.82;;;23.60;96.20;;;;;;5061427;28;20024;-36
2022/08/30 10:12:26;;;;;;;1.15;0.68;;;24.00;96.40;;;;;;5059378;28;20028;-31
2022/08/30 10:15:13;;;;;;;4.10;0.95;;;24.10;95.60;;;;;;5062157;28;20071;-32
2022/08/30 10:17:54;;;;;;;1.60;0.90;;;24.30;95.50;;;;;;5058382;28;20476;-35
2022/08/30 10:20:22;;;;;;;2.13;0.80;;;24.00;95.30;;;;;;5058851;28;20040;-31
2022/08/30 10:23:14;;;;;;;1.40;0.95;;;23.80;95.30;;;;;;5062265;28;20507;-33
2022/08/30 10:26:12;;;;;;;2.00;1.15;;;23.40;95.30;;;;;;5059893;28;20052;-33
2022/08/30 10:28:49;;;;;;;1.95;0.88;;;23.20;95.80;;;;;;5051509;28;20048;-37
2022/08/30 10:31:40;;;;;;;1.23;0.70;;;23.30;96.00;;;;;;5061506;28;20052;-32
2022/08/30 10:34:13;;;;;;;0.93;0.80;;;23.60;96.30;;;;;;5046956;28;20045;-32
2022/08/30 10:36:42;;;;;;;1.58;0.93;;;24.00;96.00;;;;;;5066052;28;20033;-40
2022/08/30 10:39:21;;;;;;;0.47;0.47;;;24.40;95.40;;;;;;5063762;28;20451;-39
2022/08/30 10:41:58;;;;;;;1.20;1.08;;;24.40;95.20;;;;;;5064519;28;20417;-33
2022/08/30 10:44:29;;;;;;;6.47;2.35;;;24.50;95.30;;;;;;5063515;28;20025;-35
2022/08/30 10:47:21;;;;;;;1.50;0.70;;;24.60;95.20;;;;;;5061049;28;20670;-32
2022/08/30 10:49:52;;;;;;;7.05;1.08;;;24.70;95.30;;;;;;5063917;28;20102;-38
2022/08/30 10:52:40;;;;;;;2.67;0.82;;;24.80;95.10;;;;;;5061247;28;20036;-32
2022/08/30 10:55:05;;;;;;;1.60;0.82;;;24.70;94.80;;;;;;5066272;28;20075;-34
2022/08/30 10:57:31;;;;;;;0.93;0.93;;;24.60;95.10;;;;;;5063592;28;21119;-32
2022/08/30 11:00:09;;;;;;;1.50;0.68;;;24.60;95.20;;;;;;5063187;28;20048;-34
2022/08/30 11:02:59;;;;;;;2.65;0.57;;;24.70;95.70;;;;;;5063159;28;20549;-33
2022/08/30 11:05:45;;;;;;;2.15;1.00;;;24.60;95.30;;;;;;5064743;28;20063;-33
2022/08/30 11:08:27;;;;;;;1.40;1.00;;;24.60;95.50;;;;;;5062736;28;20024;-34
2022/08/30 11:11:05;;;;;;;2.75;1.13;;;24.50;95.40;;;;;;5061155;28;20033;-33
2022/08/30 11:13:34;;;;;;;2.20;0.93;;;24.60;95.60;;;;;;5065347;28;20110;-32
2022/08/30 11:16:08;;;;;;;1.08;0.90;;;24.70;95.40;;;;;;5064439;28;20472;-33
2022/08/30 11:18:47;;;;;;;1.60;0.93;;;24.80;95.50;;;;;;5060799;28;20016;-33
2022/08/30 11:21:52;;;;;;;3.72;1.27;;;24.70;95.30;;;;;;5064233;28;20511;-38
2022/08/30 11:24:23;;;;;;;4.07;0.77;;;24.60;95.20;;;;;;5034980;28;20413;-34
2022/08/30 11:26:53;;;;;;;2.15;0.98;;;24.60;95.40;;;;;;5030803;28;20495;-40
2022/08/30 11:29:39;;;;;;;8.23;1.02;;;24.70;95.40;;;;;;5049061;28;20066;-48
2022/08/30 11:32:11;;;;;;;0.95;0.85;;;24.60;95.40;;;;;;5061142;28;20504;-32
2022/08/30 11:34:46;;;;;;;1.35;0.85;;;24.30;95.50;;;;;;5064699;28;20036;-33
2022/08/30 11:37:37;;;;;;;3.38;1.42;;;24.20;95.60;;;;;;5066368;28;20081;-33
2022/08/30 11:40:30;;;;;;;9.00;1.33;;;24.20;95.70;;;;;;5062543;28;20519;-56
2022/08/30 11:42:56;;;;;;;7.90;1.00;;;24.30;96.00;;;;;;5065698;28;20035;-33
2022/08/30 11:45:24;;;;;;;10.45;1.10;;;24.60;95.40;;;;;;5065710;28;20356;-34
2022/08/30 11:47:59;;;;;;;2.50;1.00;;;24.70;95.20;;;;;;5064541;28;20538;-33
2022/08/30 11:50:31;;;;;;;2.60;1.10;;;24.90;95.10;;;;;;5064108;28;20514;-32
2022/08/30 11:53:02;;;;;;;1.00;0.88;;;25.00;94.80;;;;;;5060718;28;20027;-36
2022/08/30 11:55:39;;;;;;;4.35;1.70;;;24.90;94.60;;;;;;5063383;28;20041;-34
2022/08/30 11:58:22;;;;;;;4.20;0.90;;;24.80;94.80;;;;;;5057245;28;20145;-37
2022/08/30 12:01:31;;;;;;;3.80;1.30;;;24.70;95.00;;;;;;5063179;28;20445;-37
2022/08/30 12:04:05;;;;;;;1.95;0.80;;;24.80;95.10;;;;;;5061639;28;20480;-31
2022/08/30 12:06:39;;;;;;;3.95;1.08;;;24.90;95.10;;;;;;5061326;28;20048;-43
2022/08/30 12:09:08;;;;;;;5.00;1.15;;;24.70;94.60;;;;;;5066597;28;20107;-38
2022/08/30 12:11:34;;;;;;;11.52;1.10;;;24.60;94.60;;;;;;5063338;28;20024;-42
2022/08/30 12:14:38;;;;;;;2.53;0.93;;;24.60;94.90;;;;;;5062827;28;20407;-37
2022/08/30 12:20:10;;;;;;;3.58;0.90;;;25.00;94.60;;;;;;5065052;28;20146;-36
2022/08/30 12:22:36;;;;;;;2.70;0.82;;;25.00;94.20;;;;;;5058005;28;20060;-34
2022/08/30 12:25:16;;;;;;;0.73;0.60;;;24.60;94.60;;;;;;5060969;28;20071;-45
2022/08/30 12:27:41;;;;;;;1.98;1.33;;;24.70;95.10;;;;;;5059951;28;20040;-44
2022/08/30 12:30:07;;;;;;;1.13;0.80;;;24.90;94.50;;;;;;5063892;28;20071;-35
2022/08/30 12:32:44;;;;;;;1.05;0.80;;;24.80;94.10;;;;;;5061497;28;20024;-36
2022/08/30 12:35:22;;;;;;;4.43;0.87;;;24.90;94.50;;;;;;5062743;28;20033;-38
2022/08/30 12:38:12;;;;;;;2.97;1.17;;;25.10;94.10;;;;;;5062529;28;20035;-39
2022/08/30 12:40:57;;;;;;;5.03;0.73;;;25.10;94.00;;;;;;5064112;28;20090;-41
2022/08/30 12:43:38;;;;;;;4.20;0.90;;;25.10;94.00;;;;;;5063355;28;20491;-38
2022/08/30 12:46:08;;;;;;;1.38;0.80;;;25.10;93.90;;;;;;5059593;28;20540;-32
2022/08/30 12:48:37;;;;;;;1.60;0.80;;;24.90;93.60;;;;;;5061381;28;20529;-33
2022/08/30 12:51:03;;;;;;;1.77;1.10;;;24.90;93.90;;;;;;5062244;28;20021;-30
2022/08/30 12:53:40;;;;;;;2.78;0.73;;;25.00;94.30;;;;;;5065320;28;20020;-31
2022/08/30 12:56:15;;;;;;;2.38;1.33;;;25.10;93.90;;;;;;5062892;28;20143;-33
2022/08/30 12:58:50;;;;;;;2.88;1.10;;;24.80;94.10;;;;;;5061456;28;20523;-32
2022/08/30 13:01:26;;;;;;;3.05;0.85;;;24.80;94.10;;;;;;5064187;28;20469;-34
2022/08/30 13:04:25;;;;;;;1.35;0.70;;;24.80;94.30;;;;;;5063280;28;20025;-39
2022/08/30 13:06:57;;;;;;;1.27;0.73;;;24.90;93.80;;;;;;5061887;28;20016;-38
2022/08/30 13:09:41;;;;;;;2.47;0.93;;;25.10;94.00;;;;;;5059410;28;20056;-32
2022/08/30 13:12:24;;;;;;;1.40;0.70;;;25.10;93.80;;;;;;5066888;28;20021;-30
2022/08/30 13:14:52;;;;;;;0.93;0.93;;;25.20;93.30;;;;;;5061176;28;20032;-34
2022/08/30 13:17:18;;;;;;;1.15;0.95;;;25.30;93.40;;;;;;5061290;28;21203;-34
2022/08/30 13:19:56;;;;;;;1.23;0.88;;;25.40;93.50;;;;;;5060952;28;20032;-37
2022/08/30 13:22:30;;;;;;;2.65;0.68;;;25.30;93.20;;;;;;5061001;28;20021;-34